createdAt,value
2023-03-21T00:01:52.550Z,5.78
2023-03-21T00:04:21.077Z,4.85
2023-03-21T00:06:49.458Z,6.38
2023-03-21T00:09:17.964Z,5.20
2023-03-21T00:11:46.647Z,6.50
2023-03-21T00:14:20.303Z,8.00
2023-03-21T00:16:50.707Z,6.63
2023-03-21T00:22:08.676Z,5.20
2023-03-21T00:24:38.327Z,5.72
2023-03-21T00:27:33.676Z,5.95
2023-03-21T00:29:56.853Z,6.20
2023-03-21T00:32:25.181Z,5.55
2023-03-21T00:35:23.352Z,5.80
2023-03-21T00:37:41.764Z,5.97
2023-03-21T00:40:23.022Z,4.50
2023-03-21T00:42:53.591Z,5.97
2023-03-21T00:45:23.397Z,5.93
2023-03-21T00:47:51.810Z,6.03
2023-03-21T00:50:20.438Z,5.75
2023-03-21T00:52:48.704Z,5.03
2023-03-21T00:55:18.256Z,6.72
2023-03-21T00:57:50.161Z,6.05
2023-03-21T01:00:23.056Z,8.30
2023-03-21T01:03:04.359Z,5.63
2023-03-21T01:05:57.351Z,6.63
2023-03-21T01:08:31.190Z,5.22
2023-03-21T01:11:05.516Z,6.05
2023-03-21T01:13:36.398Z,5.57
2023-03-21T01:16:08.583Z,6.72
2023-03-21T01:18:38.260Z,10.73
2023-03-21T01:21:09.628Z,4.57
2023-03-21T01:23:38.264Z,6.25
2023-03-21T01:26:07.083Z,4.95
2023-03-21T01:28:36.116Z,7.55
2023-03-21T01:31:06.753Z,6.10
2023-03-21T01:36:12.752Z,8.07
2023-03-21T01:38:41.964Z,5.65
2023-03-21T01:41:20.067Z,5.13
2023-03-21T01:43:48.806Z,6.57
2023-03-21T01:46:51.499Z,5.13
2023-03-21T01:49:27.989Z,6.78
2023-03-21T01:52:06.555Z,6.68
2023-03-21T01:54:41.094Z,7.10
2023-03-21T01:57:11.371Z,6.13
2023-03-21T01:59:42.542Z,4.75
2023-03-21T02:02:13.827Z,5.28
2023-03-21T02:04:50.752Z,4.57
2023-03-21T02:07:23.175Z,5.88
2023-03-21T02:09:52.552Z,5.00
2023-03-21T02:12:21.382Z,4.78
2023-03-21T02:14:50.579Z,5.45
2023-03-21T02:17:27.007Z,4.50
2023-03-21T02:20:12.929Z,5.05
2023-03-21T02:23:11.317Z,5.03
2023-03-21T02:26:36.173Z,6.60
2023-03-21T02:29:15.401Z,4.53
2023-03-21T02:31:49.027Z,6.13
2023-03-21T02:34:37.180Z,3.42
2023-03-21T02:37:17.832Z,6.57
2023-03-21T02:40:11.059Z,4.75
2023-03-21T02:42:51.616Z,6.72
2023-03-21T02:45:28.033Z,5.15
2023-03-21T02:47:58.896Z,3.95
2023-03-21T02:50:30.004Z,4.10
2023-03-21T02:53:00.250Z,5.50
2023-03-21T02:55:30.558Z,5.40
2023-03-21T02:58:10.430Z,4.07
2023-03-21T03:00:42.928Z,4.50
2023-03-21T03:03:17.967Z,7.13
2023-03-21T03:05:50.927Z,4.93
2023-03-21T03:08:38.373Z,5.25
2023-03-21T03:11:16.131Z,5.32
2023-03-21T03:14:25.080Z,6.50
2023-03-21T03:17:02.547Z,6.30
2023-03-21T03:19:36.635Z,8.20
2023-03-21T03:22:11.957Z,6.22
2023-03-21T03:24:44.353Z,6.72
2023-03-21T03:27:17.691Z,6.78
2023-03-21T03:29:47.934Z,5.65
2023-03-21T03:32:18.631Z,6.55
2023-03-21T03:37:21.737Z,10.48
2023-03-21T03:39:55.381Z,6.50
2023-03-21T03:42:28.667Z,5.30
2023-03-21T03:44:57.864Z,5.25
2023-03-21T03:47:34.885Z,7.07
2023-03-21T03:50:09.925Z,8.43
2023-03-21T03:52:53.600Z,7.40
2023-03-21T03:55:28.111Z,5.70
2023-03-21T03:57:56.943Z,6.53
2023-03-21T04:00:25.828Z,5.75
2023-03-21T04:02:54.236Z,5.95
2023-03-21T04:05:22.663Z,5.57
2023-03-21T04:07:51.270Z,7.03
2023-03-21T04:10:21.163Z,5.80
2023-03-21T04:12:51.107Z,5.72
2023-03-21T04:15:20.425Z,6.45
2023-03-21T04:17:48.839Z,7.20
2023-03-21T04:20:30.077Z,5.70
2023-03-21T04:23:02.326Z,9.05
2023-03-21T04:25:33.971Z,6.05
2023-03-21T04:28:04.044Z,7.90
2023-03-21T04:30:34.256Z,7.87
2023-03-21T04:33:02.555Z,7.32
2023-03-21T04:35:30.851Z,6.70
2023-03-21T04:37:59.178Z,5.38
2023-03-21T04:40:27.560Z,6.85
2023-03-21T04:42:55.857Z,6.70
2023-03-21T04:45:25.499Z,5.72
2023-03-21T04:47:53.814Z,5.87
2023-03-21T04:50:22.160Z,5.80
2023-03-21T04:52:50.455Z,5.05
2023-03-21T04:55:21.660Z,7.50
2023-03-21T04:57:50.030Z,6.53
2023-03-21T05:00:18.755Z,4.47
2023-03-21T05:02:48.437Z,5.32
2023-03-21T05:05:16.690Z,6.83
2023-03-21T05:07:45.197Z,6.35
2023-03-21T05:10:13.691Z,5.28
2023-03-21T05:12:42.297Z,6.22
2023-03-21T05:15:11.124Z,6.80
2023-03-21T05:17:39.365Z,7.05
2023-03-21T05:20:11.714Z,6.95
2023-03-21T05:22:41.365Z,8.65
2023-03-21T05:25:11.712Z,4.83
2023-03-21T05:27:45.163Z,6.55
2023-03-21T05:30:15.444Z,7.97
2023-03-21T05:32:43.977Z,8.13
2023-03-21T05:35:14.292Z,10.85
2023-03-21T05:37:42.666Z,6.97
2023-03-21T05:40:12.260Z,6.20
2023-03-21T05:42:40.582Z,9.70
2023-03-21T05:45:09.488Z,6.05
2023-03-21T05:47:37.735Z,7.70
2023-03-21T05:50:07.174Z,9.00
2023-03-21T05:52:36.936Z,7.75
2023-03-21T05:55:05.916Z,7.33
2023-03-21T05:57:39.096Z,6.15
2023-03-21T06:00:09.176Z,7.43
2023-03-21T06:02:37.944Z,6.10
2023-03-21T06:05:07.288Z,6.57
2023-03-21T06:07:37.113Z,7.30
2023-03-21T06:10:06.155Z,6.05
2023-03-21T06:12:34.451Z,5.93
2023-03-21T06:15:02.732Z,10.60
2023-03-21T06:17:30.984Z,7.90
2023-03-21T06:20:01.145Z,7.22
2023-03-21T06:22:29.477Z,6.13
2023-03-21T06:24:59.053Z,6.07
2023-03-21T06:27:27.414Z,5.47
2023-03-21T06:29:55.658Z,5.38
2023-03-21T06:32:23.919Z,9.18
2023-03-21T06:34:52.428Z,5.68
2023-03-21T06:37:21.225Z,5.43
2023-03-21T06:39:49.472Z,5.50
2023-03-21T06:42:19.042Z,7.28
2023-03-21T06:44:47.265Z,6.95
2023-03-21T06:47:15.720Z,9.20
2023-03-21T06:49:44.718Z,16.83
2023-03-21T06:52:12.974Z,12.10
2023-03-21T06:54:41.374Z,7.75
2023-03-21T06:57:09.647Z,8.35
2023-03-21T06:59:41.497Z,6.00
2023-03-21T07:02:11.223Z,7.93
2023-03-21T07:04:39.522Z,7.23
2023-03-21T07:07:07.795Z,6.70
2023-03-21T07:09:36.054Z,7.45
2023-03-21T07:12:04.438Z,7.10
2023-03-21T07:14:34.566Z,7.18
2023-03-21T07:17:04.202Z,6.40
2023-03-21T07:19:32.453Z,7.23
2023-03-21T07:22:01.580Z,6.40
2023-03-21T07:24:29.856Z,5.82
2023-03-21T07:26:58.089Z,6.78
2023-03-21T07:29:26.346Z,6.35
2023-03-21T07:31:54.682Z,6.28
2023-03-21T07:34:24.387Z,6.90
2023-03-21T07:36:52.639Z,6.53
2023-03-21T07:39:21.173Z,6.53
2023-03-21T07:41:49.400Z,8.48
2023-03-21T07:44:17.690Z,6.85
2023-03-21T07:46:45.899Z,6.80
2023-03-21T07:49:14.218Z,6.72
2023-03-21T07:51:43.895Z,6.85
2023-03-21T07:54:12.257Z,9.17
2023-03-21T07:56:40.580Z,6.45
2023-03-21T07:59:09.947Z,8.75
2023-03-21T08:01:38.280Z,7.43
2023-03-21T08:04:06.850Z,8.48
2023-03-21T08:09:18.699Z,7.45
2023-03-21T08:11:46.956Z,6.40
2023-03-21T08:14:15.363Z,8.70
2023-03-21T08:16:43.750Z,7.53
2023-03-21T08:19:12.043Z,7.43
2023-03-21T08:21:40.838Z,7.55
2023-03-21T08:24:09.180Z,8.10
2023-03-21T08:26:38.826Z,6.88
2023-03-21T08:29:07.450Z,7.13
2023-03-21T08:31:35.759Z,7.45
2023-03-21T08:34:04.332Z,9.48
2023-03-21T08:36:32.788Z,6.63
2023-03-21T08:39:05.516Z,8.20
2023-03-21T08:41:34.007Z,9.88
2023-03-21T08:44:03.762Z,9.85
2023-03-21T08:46:32.265Z,9.23
2023-03-21T08:49:00.765Z,11.07
2023-03-21T08:51:29.137Z,8.45
2023-03-21T08:53:57.409Z,8.88
2023-03-21T08:56:25.715Z,7.55
2023-03-21T08:58:53.984Z,9.68
2023-03-21T09:01:23.677Z,7.75
2023-03-21T09:03:52.025Z,9.73
2023-03-21T09:06:20.277Z,8.90
2023-03-21T09:08:48.670Z,7.90
2023-03-21T09:11:16.991Z,8.05
2023-03-21T09:13:45.251Z,6.70
2023-03-21T09:16:13.626Z,7.53
2023-03-21T09:18:47.255Z,6.80
2023-03-21T09:21:17.135Z,7.53
2023-03-21T09:23:46.248Z,7.72
2023-03-21T09:26:15.505Z,8.68
2023-03-21T09:28:46.206Z,7.22
2023-03-21T09:31:16.470Z,8.52
2023-03-21T09:33:46.230Z,7.28
2023-03-21T09:36:15.502Z,6.40
2023-03-21T09:38:45.464Z,9.30
2023-03-21T09:41:30.817Z,8.70
2023-03-21T09:44:08.237Z,9.13
2023-03-21T09:46:42.745Z,8.45
2023-03-21T09:49:18.158Z,8.68
2023-03-21T09:51:48.836Z,9.18
2023-03-21T09:54:20.934Z,7.72
2023-03-21T09:56:51.245Z,5.68
2023-03-21T09:59:25.127Z,7.10
2023-03-21T10:01:55.376Z,7.10
2023-03-21T10:04:25.143Z,7.72
2023-03-21T10:06:57.956Z,7.57
2023-03-21T10:09:28.269Z,5.57
2023-03-21T10:12:00.284Z,8.18
2023-03-21T10:14:32.302Z,6.43
2023-03-21T10:17:02.589Z,7.38
2023-03-21T10:19:32.271Z,7.88
2023-03-21T10:22:02.693Z,8.80
2023-03-21T10:24:34.654Z,7.35
2023-03-21T10:27:04.393Z,8.15
2023-03-21T10:29:37.185Z,9.38
2023-03-21T10:32:06.267Z,9.60
2023-03-21T10:34:38.946Z,8.38
2023-03-21T10:37:07.631Z,8.23
2023-03-21T10:39:37.810Z,9.35
2023-03-21T10:42:06.783Z,11.25
2023-03-21T10:44:36.124Z,6.60
2023-03-21T10:47:07.036Z,8.52
2023-03-21T10:49:56.425Z,9.48
2023-03-21T10:52:28.917Z,7.00
2023-03-21T10:55:09.587Z,7.00
2023-03-21T10:57:38.863Z,7.88
2023-03-21T11:00:17.022Z,7.10
2023-03-21T11:02:49.300Z,3.85
2023-03-21T11:05:24.276Z,6.35
2023-03-21T11:08:04.551Z,5.30
2023-03-21T11:10:34.159Z,4.95
2023-03-21T11:13:05.561Z,8.57
2023-03-21T11:15:39.619Z,5.57
2023-03-21T11:18:16.390Z,5.88
2023-03-21T11:20:51.132Z,6.88
2023-03-21T11:23:20.857Z,8.63
2023-03-21T11:25:50.478Z,9.02
2023-03-21T11:28:21.774Z,7.13
2023-03-21T11:30:51.852Z,8.55
2023-03-21T11:33:21.667Z,9.63
2023-03-21T11:36:02.180Z,9.65
2023-03-21T11:41:01.178Z,7.47
2023-03-21T11:43:33.044Z,8.48
2023-03-21T11:46:06.479Z,10.38
2023-03-21T11:48:40.617Z,7.20
2023-03-21T11:51:19.478Z,9.45
2023-03-21T11:53:51.614Z,6.68
2023-03-21T11:56:24.455Z,7.03
2023-03-21T11:59:03.575Z,8.15
2023-03-21T12:01:39.290Z,6.80
2023-03-21T12:04:23.875Z,6.97
2023-03-21T12:06:55.395Z,8.23
2023-03-21T12:09:41.879Z,11.32
2023-03-21T12:12:36.482Z,7.00
2023-03-21T12:15:14.149Z,5.43
2023-03-21T12:17:51.649Z,5.68
2023-03-21T12:20:26.102Z,4.28
2023-03-21T12:23:06.755Z,6.70
2023-03-21T12:25:42.055Z,5.55
2023-03-21T12:28:32.019Z,5.63
2023-03-21T12:31:09.146Z,4.90
2023-03-21T12:33:58.275Z,6.18
2023-03-21T12:36:37.075Z,5.90
2023-03-21T12:39:15.155Z,7.65
2023-03-21T12:41:45.729Z,5.43
2023-03-21T12:44:16.464Z,5.45
2023-03-21T12:46:46.966Z,7.70
2023-03-21T12:51:46.383Z,7.40
2023-03-21T12:56:51.552Z,6.65
2023-03-21T12:59:26.148Z,6.45
2023-03-21T13:01:57.426Z,5.90
2023-03-21T13:04:48.947Z,6.15
2023-03-21T13:07:20.172Z,10.23
2023-03-21T13:09:51.296Z,6.20
2023-03-21T13:12:32.515Z,7.63
2023-03-21T13:15:23.229Z,5.60
2023-03-21T13:17:55.886Z,5.22
2023-03-21T13:20:28.111Z,6.53
2023-03-21T13:22:56.528Z,6.03
2023-03-21T13:25:28.203Z,5.50
2023-03-21T13:28:01.424Z,5.32
2023-03-21T13:30:32.343Z,5.13
2023-03-21T13:33:06.823Z,4.80
2023-03-21T13:35:38.336Z,7.18
2023-03-21T13:38:12.913Z,4.00
2023-03-21T13:40:45.388Z,5.40
2023-03-21T13:43:36.241Z,6.00
2023-03-21T13:46:08.286Z,6.78
2023-03-21T13:49:00.338Z,5.28
2023-03-21T13:51:47.450Z,6.35
2023-03-21T13:54:22.545Z,5.38
2023-03-21T13:56:54.024Z,5.88
2023-03-21T13:59:38.766Z,7.28
2023-03-21T14:02:23.467Z,6.03
2023-03-21T14:05:04.968Z,7.53
2023-03-21T14:07:35.467Z,6.43
2023-03-21T14:10:06.444Z,6.53
2023-03-21T14:12:41.969Z,4.65
2023-03-21T14:15:17.934Z,6.28
2023-03-21T14:17:56.935Z,5.10
2023-03-21T14:20:27.879Z,6.07
2023-03-21T14:22:56.503Z,4.60
2023-03-21T14:25:31.448Z,5.00
2023-03-21T14:28:05.961Z,5.50
2023-03-21T14:30:36.213Z,5.03
2023-03-21T14:33:08.745Z,3.47
2023-03-21T14:35:37.460Z,4.72
2023-03-21T14:38:09.034Z,5.72
2023-03-21T14:40:37.583Z,5.55
2023-03-21T14:43:07.994Z,5.88
2023-03-21T14:45:38.045Z,4.28
2023-03-21T14:48:09.753Z,6.15
2023-03-21T14:50:41.634Z,5.57
2023-03-21T14:53:17.214Z,5.20
2023-03-21T14:55:47.795Z,5.30
2023-03-21T14:58:19.112Z,4.47
2023-03-21T15:00:50.138Z,3.35
2023-03-21T15:03:19.479Z,4.68
2023-03-21T15:05:48.107Z,4.35
2023-03-21T15:08:18.596Z,5.75
2023-03-21T15:13:38.118Z,6.07
2023-03-21T15:16:07.357Z,3.88
2023-03-21T15:18:38.350Z,4.32
2023-03-21T15:21:09.780Z,4.93
2023-03-21T15:23:40.197Z,5.53
2023-03-21T15:26:08.922Z,5.45
2023-03-21T15:28:38.557Z,4.13
2023-03-21T15:31:08.041Z,3.70
2023-03-21T15:33:36.377Z,3.33
2023-03-21T15:36:10.736Z,5.32
2023-03-21T15:38:40.699Z,4.55
2023-03-21T15:41:16.544Z,3.15
2023-03-21T15:43:46.879Z,2.22
2023-03-21T15:46:17.788Z,3.67
2023-03-21T15:48:46.827Z,4.43
2023-03-21T15:51:22.142Z,4.15
2023-03-21T15:53:54.015Z,4.00
2023-03-21T15:56:23.464Z,3.38
2023-03-21T15:58:54.180Z,3.78
2023-03-21T16:01:26.315Z,6.38
2023-03-21T16:03:57.609Z,5.13
2023-03-21T16:06:33.473Z,5.47
2023-03-21T16:09:11.386Z,4.97
2023-03-21T16:11:40.834Z,5.57
2023-03-21T16:14:10.593Z,5.00
2023-03-21T16:16:38.973Z,4.13
2023-03-21T16:19:08.319Z,3.88
2023-03-21T16:21:38.260Z,4.15
2023-03-21T16:24:08.729Z,4.25
2023-03-21T16:26:39.533Z,4.63
2023-03-21T16:29:08.583Z,5.32
2023-03-21T16:31:38.191Z,6.38
2023-03-21T16:34:07.162Z,5.30
2023-03-21T16:36:37.687Z,4.38
2023-03-21T16:41:37.352Z,4.70
2023-03-21T16:44:05.578Z,5.88
2023-03-21T16:46:34.386Z,6.20
2023-03-21T16:49:04.432Z,4.72
2023-03-21T16:51:34.297Z,5.20
2023-03-21T16:54:03.142Z,4.07
2023-03-21T16:56:36.175Z,6.72
2023-03-21T16:59:05.812Z,3.65
2023-03-21T17:01:35.983Z,4.27
2023-03-21T17:04:06.047Z,3.42
2023-03-21T17:06:34.531Z,5.55
2023-03-21T17:09:04.654Z,4.25
2023-03-21T17:11:36.162Z,4.63
2023-03-21T17:14:04.528Z,5.25
2023-03-21T17:16:33.093Z,3.90
2023-03-21T17:19:01.824Z,6.30
2023-03-21T17:21:31.889Z,4.45
2023-03-21T17:24:00.828Z,5.15
2023-03-21T17:26:29.799Z,4.78
2023-03-21T17:28:58.164Z,4.80
2023-03-21T17:31:27.872Z,6.05
2023-03-21T17:33:56.272Z,6.10
2023-03-21T17:36:27.814Z,6.55
2023-03-21T17:38:57.819Z,5.72
2023-03-21T17:41:26.186Z,4.90
2023-03-21T17:43:55.797Z,5.57
2023-03-21T17:46:27.071Z,5.93
2023-03-21T17:48:56.175Z,4.82
2023-03-21T17:51:29.963Z,4.95
2023-03-21T17:54:00.410Z,6.93
2023-03-21T17:58:59.602Z,5.30
2023-03-21T18:01:28.347Z,7.00
2023-03-21T18:03:56.675Z,4.90
2023-03-21T18:06:27.022Z,5.07
2023-03-21T18:08:55.852Z,8.13
2023-03-21T18:11:25.777Z,6.75
2023-03-21T18:14:06.563Z,5.93
2023-03-21T18:16:42.674Z,6.25
2023-03-21T18:19:12.868Z,4.65
2023-03-21T18:21:44.900Z,4.93
2023-03-21T18:24:13.587Z,4.82
2023-03-21T18:26:43.420Z,6.43
2023-03-21T18:32:07.050Z,5.63
2023-03-21T18:34:37.425Z,4.55
2023-03-21T18:37:07.972Z,6.93
2023-03-21T18:42:07.494Z,7.35
2023-03-21T18:44:45.512Z,5.68
2023-03-21T18:47:14.633Z,5.07
2023-03-21T18:52:32.020Z,6.93
2023-03-21T18:55:00.515Z,4.88
2023-03-21T18:57:38.902Z,6.97
2023-03-21T19:00:14.697Z,6.50
2023-03-21T19:02:47.773Z,8.38
2023-03-21T19:05:17.772Z,5.13
2023-03-21T19:07:46.630Z,9.10
2023-03-21T19:10:18.946Z,9.80
2023-03-21T19:12:49.616Z,6.28
2023-03-21T19:15:19.731Z,5.82
2023-03-21T19:20:37.890Z,6.57
2023-03-21T19:23:08.234Z,5.07
2023-03-21T19:25:37.913Z,7.03
2023-03-21T19:28:08.221Z,4.03
2023-03-21T19:30:36.861Z,5.75
2023-03-21T19:33:05.398Z,5.03
2023-03-21T19:35:37.273Z,5.97
2023-03-21T19:38:06.097Z,6.97
2023-03-21T19:40:34.539Z,7.25
2023-03-21T19:43:21.626Z,6.78
2023-03-21T19:45:52.659Z,6.75
2023-03-21T19:48:21.223Z,5.13
2023-03-21T19:51:24.300Z,4.80
2023-03-21T19:53:38.877Z,8.43
2023-03-21T19:56:19.710Z,6.28
2023-03-21T19:58:49.648Z,5.55
2023-03-21T20:01:19.354Z,5.03
2023-03-21T20:03:47.698Z,5.50
2023-03-21T20:06:16.274Z,4.47
2023-03-21T20:11:32.875Z,4.40
2023-03-21T20:14:03.056Z,4.65
2023-03-21T20:16:35.884Z,9.98
2023-03-21T20:19:05.957Z,3.35
2023-03-21T20:21:44.382Z,5.00
2023-03-21T20:24:14.326Z,8.25
2023-03-21T20:26:42.705Z,5.97
2023-03-21T20:30:03.854Z,4.15
2023-03-21T20:32:00.698Z,3.40
2023-03-21T20:34:30.550Z,3.85
2023-03-21T20:36:59.294Z,4.97
2023-03-21T20:39:29.820Z,5.00
2023-03-21T20:44:51.735Z,6.18
2023-03-21T20:47:17.648Z,5.90
2023-03-21T20:49:45.888Z,6.75
2023-03-21T20:52:54.478Z,6.97
2023-03-21T20:55:03.620Z,5.15
2023-03-21T20:57:32.614Z,8.23
2023-03-21T21:00:00.841Z,5.40
2023-03-21T21:02:30.602Z,6.20
2023-03-21T21:05:24.108Z,6.20
2023-03-21T21:07:48.950Z,8.57
2023-03-21T21:10:18.647Z,9.95
2023-03-21T21:12:46.901Z,6.40
2023-03-21T21:15:17.015Z,7.70
2023-03-21T21:18:04.939Z,8.93
2023-03-21T21:20:35.310Z,7.13
2023-03-21T21:23:04.027Z,7.35
2023-03-21T21:25:33.753Z,11.45
2023-03-21T21:28:02.624Z,7.37
2023-03-21T21:30:31.880Z,6.80
2023-03-21T21:33:01.716Z,8.35
2023-03-21T21:35:30.033Z,5.90
2023-03-21T21:37:58.376Z,6.85
2023-03-21T21:40:26.712Z,8.30
2023-03-21T21:42:55.044Z,5.75
2023-03-21T21:45:23.440Z,6.63
2023-03-21T21:47:51.977Z,6.25
2023-03-21T21:50:22.628Z,4.43
2023-03-21T21:55:22.825Z,8.25
2023-03-21T21:57:51.367Z,7.32
2023-03-21T22:00:20.891Z,10.18
2023-03-21T22:02:49.234Z,6.70
2023-03-21T22:05:18.984Z,7.43
2023-03-21T22:07:49.328Z,6.45
2023-03-21T22:10:17.696Z,8.00
2023-03-21T22:12:46.167Z,9.85
2023-03-21T22:15:15.067Z,9.35
2023-03-21T22:17:43.341Z,7.55
2023-03-21T22:20:14.650Z,10.88
2023-03-21T22:22:42.892Z,9.68
2023-03-21T22:25:14.485Z,8.75
2023-03-21T22:27:42.758Z,9.52
2023-03-21T22:30:13.817Z,11.98
2023-03-21T22:32:42.263Z,7.22
2023-03-21T22:35:10.994Z,8.57
2023-03-21T22:37:40.830Z,8.57
2023-03-21T22:40:11.093Z,10.13
2023-03-21T22:42:41.202Z,12.75
2023-03-21T22:45:11.152Z,9.52
2023-03-21T22:47:39.468Z,12.68
2023-03-21T22:50:08.993Z,15.52
2023-03-21T22:52:37.453Z,11.85
2023-03-21T22:55:07.051Z,14.10
2023-03-21T22:57:35.430Z,10.55
2023-03-21T23:00:12.977Z,15.02
2023-03-21T23:02:41.357Z,11.02
2023-03-21T23:05:10.470Z,12.30
2023-03-21T23:07:38.783Z,17.50
2023-03-21T23:10:08.911Z,15.90
2023-03-21T23:12:37.487Z,12.98
2023-03-21T23:15:09.022Z,23.17
2023-03-21T23:17:38.017Z,17.50
2023-03-21T23:20:07.200Z,19.40
2023-03-21T23:22:36.055Z,16.67
2023-03-21T23:25:04.882Z,19.38
2023-03-21T23:27:35.240Z,13.98
2023-03-21T23:30:04.920Z,19.75
2023-03-21T23:32:34.714Z,10.63
2023-03-21T23:35:02.978Z,27.57
2023-03-21T23:37:31.201Z,14.60
2023-03-21T23:39:59.474Z,17.50
2023-03-21T23:42:30.084Z,11.07
2023-03-21T23:47:26.331Z,11.63
2023-03-21T23:49:55.937Z,16.15
2023-03-21T23:52:24.169Z,17.02
2023-03-21T23:54:52.523Z,15.23
2023-03-21T23:57:21.875Z,16.73
2023-03-21T23:59:50.213Z,20.48
